Time;durP1;ratioP1;P1;durP2;ratioP2;P2;SDS_P1;SDS_P2;PMS_P1;PMS_P2;Temp;Humidity;BMP_temperature;BMP_pressure;BME280_temperature;BME280_humidity;BME280_pressure;Samples;Min_cycle;Max_cycle;Signal;HPM_P1;HPM_P2
2021/11/15 00:00:26;;;;;;;9.25;6.43;;;;;;;;;;5088157;28;20051;-76
2021/11/15 00:02:52;;;;;;;11.70;6.97;;;;;;;;;;5094686;28;20493;-76
2021/11/15 00:05:19;;;;;;;10.65;7.28;;;;;;;;;;5093712;28;20492;-77
2021/11/15 00:07:45;;;;;;;11.55;6.40;;;;;;;;;;5093672;28;20106;-76
2021/11/15 00:10:15;;;;;;;11.82;7.40;;;;;;;;;;5076042;28;20100;-77
2021/11/15 00:12:42;;;;;;;11.35;7.45;;;;;;;;;;5072749;28;20032;-77
2021/11/15 00:15:09;;;;;;;10.45;7.13;;;;;;;;;;5071915;28;20028;-78
2021/11/15 00:17:35;;;;;;;9.50;6.68;;;;;;;;;;5072738;28;20111;-77
2021/11/15 00:20:01;;;;;;;12.88;7.70;;;;;;;;;;5087100;28;20108;-77
2021/11/15 00:22:27;;;;;;;11.45;7.40;;;;;;;;;;5090444;28;20572;-77
2021/11/15 00:24:52;;;;;;;12.05;7.82;;;;;;;;;;5071943;28;20024;-77
2021/11/15 00:27:18;;;;;;;13.07;8.43;;;;;;;;;;5088306;28;20036;-77
2021/11/15 00:29:44;;;;;;;12.68;7.20;;;;;;;;;;5077770;28;20024;-76
2021/11/15 00:32:10;;;;;;;10.30;7.70;;;;;;;;;;5072673;28;20028;-77
2021/11/15 00:34:36;;;;;;;10.77;7.60;;;;;;;;;;5071784;28;20685;-78
2021/11/15 00:37:03;;;;;;;10.88;6.68;;;;;;;;;;5072567;28;20130;-78
2021/11/15 00:39:29;;;;;;;13.38;7.25;;;;;;;;;;5086041;28;20070;-77
2021/11/15 00:41:55;;;;;;;10.43;7.25;;;;;;;;;;5092773;28;20028;-78
2021/11/15 00:44:21;;;;;;;12.40;7.45;;;;;;;;;;5092094;28;20024;-78
2021/11/15 00:46:47;;;;;;;9.30;7.43;;;;;;;;;;5092113;28;20338;-77
2021/11/15 00:49:13;;;;;;;11.40;8.15;;;;;;;;;;5077079;28;20163;-78
2021/11/15 00:51:38;;;;;;;10.98;7.57;;;;;;;;;;5072194;28;20024;-78
2021/11/15 00:54:05;;;;;;;10.23;8.15;;;;;;;;;;5072035;28;20095;-77
2021/11/15 00:56:31;;;;;;;12.98;8.90;;;;;;;;;;5071598;28;20502;-78
2021/11/15 00:58:57;;;;;;;10.95;8.07;;;;;;;;;;5072534;28;20025;-77
2021/11/15 01:01:23;;;;;;;12.80;8.25;;;;;;;;;;5071817;28;20029;-78
2021/11/15 01:03:49;;;;;;;11.10;8.13;;;;;;;;;;5071945;28;20389;-78
2021/11/15 01:06:16;;;;;;;13.48;8.90;;;;;;;;;;5074157;28;21691;-78
2021/11/15 01:08:42;;;;;;;13.38;8.50;;;;;;;;;;5086572;28;20033;-78
2021/11/15 01:11:08;;;;;;;17.08;8.27;;;;;;;;;;5071844;28;20081;-77
2021/11/15 01:13:35;;;;;;;13.60;8.43;;;;;;;;;;5071664;28;20032;-78
2021/11/15 01:16:01;;;;;;;13.73;9.52;;;;;;;;;;5076414;28;20410;-77
2021/11/15 01:18:27;;;;;;;15.02;8.98;;;;;;;;;;5086536;28;20021;-75
2021/11/15 01:20:53;;;;;;;15.18;9.07;;;;;;;;;;5054011;28;20135;-78
2021/11/15 01:23:19;;;;;;;11.20;8.60;;;;;;;;;;5071741;28;20064;-78
2021/11/15 01:25:45;;;;;;;13.73;8.98;;;;;;;;;;5071212;28;20033;-78
2021/11/15 01:28:11;;;;;;;18.35;8.88;;;;;;;;;;5087818;28;20527;-78
2021/11/15 01:30:38;;;;;;;13.15;8.93;;;;;;;;;;5071447;28;20095;-78
2021/11/15 01:33:04;;;;;;;14.13;9.52;;;;;;;;;;5071648;28;20103;-79
2021/11/15 01:35:30;;;;;;;17.58;9.15;;;;;;;;;;5071109;28;20458;-77
2021/11/15 01:37:56;;;;;;;13.88;8.85;;;;;;;;;;5053562;28;20036;-78
2021/11/15 01:40:24;;;;;;;13.05;9.25;;;;;;;;;;5091410;28;20024;-77
2021/11/15 01:42:51;;;;;;;13.02;8.35;;;;;;;;;;5091634;28;20028;-77
2021/11/15 01:45:23;;;;;;;12.30;8.43;;;;;;;;;;5090906;28;20056;-77
2021/11/15 01:47:49;;;;;;;14.13;9.10;;;;;;;;;;5072523;28;20481;-78
2021/11/15 01:50:15;;;;;;;11.95;7.65;;;;;;;;;;5090449;28;20734;-77
2021/11/15 01:52:42;;;;;;;13.45;8.02;;;;;;;;;;5086949;28;20378;-77
2021/11/15 01:55:08;;;;;;;14.13;8.70;;;;;;;;;;5070872;28;20508;-77
2021/11/15 01:57:34;;;;;;;13.60;8.80;;;;;;;;;;5087725;28;20056;-77
2021/11/15 02:00:00;;;;;;;13.10;8.40;;;;;;;;;;5077937;28;20103;-77
2021/11/15 02:02:26;;;;;;;13.75;8.13;;;;;;;;;;5071480;28;20033;-77
2021/11/15 02:04:57;;;;;;;13.32;7.80;;;;;;;;;;5070866;28;20108;-77
2021/11/15 02:07:24;;;;;;;13.50;8.68;;;;;;;;;;5082351;28;20422;-77
2021/11/15 02:09:50;;;;;;;13.85;8.15;;;;;;;;;;5087395;28;20062;-77
2021/11/15 02:12:17;;;;;;;13.13;7.60;;;;;;;;;;5095400;28;20020;-76
2021/11/15 02:14:43;;;;;;;13.20;7.60;;;;;;;;;;5094698;28;20029;-77
2021/11/15 02:17:09;;;;;;;13.32;8.30;;;;;;;;;;5095040;28;20090;-77
2021/11/15 02:19:35;;;;;;;13.75;8.23;;;;;;;;;;5084245;28;20068;-77
2021/11/15 02:22:01;;;;;;;12.70;7.65;;;;;;;;;;5095233;28;20025;-77
2021/11/15 02:24:27;;;;;;;12.55;7.82;;;;;;;;;;5075293;28;20497;-77
2021/11/15 02:26:53;;;;;;;12.50;8.13;;;;;;;;;;5075320;28;20107;-77
2021/11/15 02:29:19;;;;;;;12.38;7.97;;;;;;;;;;5074815;28;20029;-77
2021/11/15 02:31:45;;;;;;;14.25;8.35;;;;;;;;;;5074679;28;20051;-76
2021/11/15 02:34:11;;;;;;;13.80;8.10;;;;;;;;;;5056867;28;20044;-76
2021/11/15 02:36:41;;;;;;;17.33;9.75;;;;;;;;;;5074168;28;20025;-77
2021/11/15 02:39:07;;;;;;;15.48;8.30;;;;;;;;;;5080727;28;20035;-76
2021/11/15 02:41:33;;;;;;;12.50;8.23;;;;;;;;;;5074687;28;20024;-77
2021/11/15 02:44:02;;;;;;;16.95;9.25;;;;;;;;;;5075836;28;20101;-76
2021/11/15 02:46:31;;;;;;;14.05;8.43;;;;;;;;;;5089241;28;20024;-78
2021/11/15 02:48:57;;;;;;;17.83;9.00;;;;;;;;;;5063325;28;20072;-77
2021/11/15 02:51:24;;;;;;;15.80;8.68;;;;;;;;;;5085834;28;20050;-78
2021/11/15 02:53:50;;;;;;;15.10;7.93;;;;;;;;;;5074177;28;20022;-77
2021/11/15 02:56:17;;;;;;;15.55;8.75;;;;;;;;;;5078467;28;20055;-76
2021/11/15 02:58:43;;;;;;;14.55;8.30;;;;;;;;;;5090023;28;20059;-76
2021/11/15 03:01:13;;;;;;;19.58;10.05;;;;;;;;;;5073940;28;20048;-76
2021/11/15 03:03:40;;;;;;;13.35;8.70;;;;;;;;;;5074328;28;20035;-77
2021/11/15 03:06:05;;;;;;;15.70;8.40;;;;;;;;;;5073563;28;20547;-77
2021/11/15 03:08:32;;;;;;;14.65;9.63;;;;;;;;;;5074613;28;20028;-77
2021/11/15 03:10:59;;;;;;;14.20;7.97;;;;;;;;;;5074107;28;20070;-77
2021/11/15 03:13:26;;;;;;;14.35;8.52;;;;;;;;;;5073950;28;20455;-77
2021/11/15 03:15:53;;;;;;;14.75;7.82;;;;;;;;;;5073261;28;20024;-79
2021/11/15 03:18:20;;;;;;;14.80;9.23;;;;;;;;;;5077201;28;20040;-78
2021/11/15 03:20:52;;;;;;;14.25;8.48;;;;;;;;;;5093852;28;20503;-75
2021/11/15 03:23:20;;;;;;;14.90;8.50;;;;;;;;;;5083657;28;20035;-78
2021/11/15 03:25:47;;;;;;;15.95;8.05;;;;;;;;;;5073274;28;20028;-78
2021/11/15 03:28:14;;;;;;;13.90;8.15;;;;;;;;;;5090512;28;20036;-76
2021/11/15 03:30:41;;;;;;;15.35;8.43;;;;;;;;;;5076589;28;20042;-79
2021/11/15 03:33:08;;;;;;;15.27;8.35;;;;;;;;;;5073598;28;20028;-78
2021/11/15 03:35:34;;;;;;;16.85;8.13;;;;;;;;;;5073006;28;20020;-78
2021/11/15 03:38:00;;;;;;;15.60;8.75;;;;;;;;;;5075785;28;20035;-78
2021/11/15 03:40:27;;;;;;;15.32;8.57;;;;;;;;;;5074786;28;20025;-78
2021/11/15 03:42:55;;;;;;;14.35;8.88;;;;;;;;;;5073529;28;20025;-77
2021/11/15 03:45:21;;;;;;;16.13;9.52;;;;;;;;;;5054627;28;20028;-76
2021/11/15 03:47:47;;;;;;;15.50;8.77;;;;;;;;;;5081060;28;20024;-76
2021/11/15 03:50:13;;;;;;;15.35;8.43;;;;;;;;;;5083696;28;20388;-78
2021/11/15 03:52:41;;;;;;;15.43;8.77;;;;;;;;;;5073247;28;20100;-78
2021/11/15 03:55:08;;;;;;;14.45;8.07;;;;;;;;;;5072667;28;20138;-78
2021/11/15 03:57:35;;;;;;;14.35;8.75;;;;;;;;;;5076334;28;20623;-78
2021/11/15 04:00:03;;;;;;;16.10;8.85;;;;;;;;;;5073783;28;20032;-78
2021/11/15 04:02:33;;;;;;;16.27;10.02;;;;;;;;;;5073337;28;20461;-76
2021/11/15 04:05:03;;;;;;;14.45;8.90;;;;;;;;;;5072602;28;20024;-76
2021/11/15 04:07:49;;;;;;;15.38;9.00;;;;;;;;;;5073047;28;20024;-77
2021/11/15 04:10:21;;;;;;;16.30;9.52;;;;;;;;;;5092438;28;20043;-76
2021/11/15 04:12:47;;;;;;;16.52;9.13;;;;;;;;;;5093032;28;20020;-76
2021/11/15 04:15:14;;;;;;;13.95;8.57;;;;;;;;;;5074087;28;20055;-77
2021/11/15 04:17:40;;;;;;;16.08;9.40;;;;;;;;;;5093036;28;20025;-78
2021/11/15 04:20:08;;;;;;;15.63;9.18;;;;;;;;;;5093187;28;20032;-78
2021/11/15 04:22:36;;;;;;;14.60;8.93;;;;;;;;;;5089884;28;20072;-76
2021/11/15 04:25:06;;;;;;;15.40;9.43;;;;;;;;;;5072549;28;20032;-76
2021/11/15 04:27:32;;;;;;;14.95;8.95;;;;;;;;;;5074466;28;20020;-78
2021/11/15 04:29:58;;;;;;;15.60;9.02;;;;;;;;;;5059237;28;20427;-78
2021/11/15 04:32:24;;;;;;;13.85;9.25;;;;;;;;;;5072905;28;20043;-78
2021/11/15 04:34:50;;;;;;;17.98;9.30;;;;;;;;;;5071981;28;20422;-78
2021/11/15 04:37:16;;;;;;;16.10;8.73;;;;;;;;;;5072227;28;20402;-78
2021/11/15 04:39:42;;;;;;;16.30;8.95;;;;;;;;;;5086803;28;20030;-77
2021/11/15 04:42:08;;;;;;;14.85;8.73;;;;;;;;;;5092754;28;20024;-77
2021/11/15 04:44:34;;;;;;;15.00;8.43;;;;;;;;;;5092130;28;20032;-77
2021/11/15 04:47:00;;;;;;;12.80;8.27;;;;;;;;;;5086323;28;20640;-78
2021/11/15 04:49:26;;;;;;;14.10;8.68;;;;;;;;;;5086152;28;20115;-78
2021/11/15 04:51:52;;;;;;;15.23;8.70;;;;;;;;;;5092609;28;20507;-78
2021/11/15 04:54:19;;;;;;;15.02;8.85;;;;;;;;;;5073948;28;20124;-78
2021/11/15 04:56:45;;;;;;;16.02;9.18;;;;;;;;;;5071951;28;20473;-78
2021/11/15 04:59:11;;;;;;;13.80;8.00;;;;;;;;;;5087313;28;20042;-78
2021/11/15 05:01:37;;;;;;;13.68;8.88;;;;;;;;;;5092968;28;20030;-78
2021/11/15 05:04:03;;;;;;;15.73;8.40;;;;;;;;;;5093267;28;20062;-77
2021/11/15 05:06:29;;;;;;;14.90;8.50;;;;;;;;;;5074210;28;20028;-77
2021/11/15 05:08:55;;;;;;;12.48;7.90;;;;;;;;;;5081650;28;20032;-76
2021/11/15 05:11:21;;;;;;;13.55;8.32;;;;;;;;;;5072213;28;20036;-77
2021/11/15 05:13:47;;;;;;;15.40;9.15;;;;;;;;;;5072070;28;20024;-78
2021/11/15 05:16:13;;;;;;;14.35;8.43;;;;;;;;;;5071032;28;20027;-78
2021/11/15 05:18:39;;;;;;;14.32;8.48;;;;;;;;;;5081639;28;20060;-77
2021/11/15 05:21:05;;;;;;;14.55;8.80;;;;;;;;;;5073805;28;20024;-77
2021/11/15 05:23:32;;;;;;;12.02;8.10;;;;;;;;;;5080683;28;20536;-78
2021/11/15 05:25:58;;;;;;;14.82;8.88;;;;;;;;;;5071652;28;20028;-78
2021/11/15 05:28:24;;;;;;;13.38;8.60;;;;;;;;;;5063437;28;20054;-77
2021/11/15 05:30:50;;;;;;;13.82;7.95;;;;;;;;;;5092214;28;20027;-78
2021/11/15 05:33:16;;;;;;;13.65;7.85;;;;;;;;;;5092422;28;20028;-78
2021/11/15 05:35:42;;;;;;;13.32;7.97;;;;;;;;;;5092021;28;20028;-78
2021/11/15 05:38:08;;;;;;;13.60;8.15;;;;;;;;;;5090422;28;20387;-78
2021/11/15 05:40:34;;;;;;;13.25;8.75;;;;;;;;;;5092483;28;20032;-78
2021/11/15 05:43:01;;;;;;;13.30;8.80;;;;;;;;;;5074462;28;20062;-78
2021/11/15 05:45:27;;;;;;;15.75;8.75;;;;;;;;;;5093381;28;20028;-78
2021/11/15 05:47:54;;;;;;;15.43;8.63;;;;;;;;;;5097490;28;20032;-78
2021/11/15 05:50:20;;;;;;;13.77;8.18;;;;;;;;;;5083102;28;20024;-77
2021/11/15 05:52:47;;;;;;;12.85;8.35;;;;;;;;;;5076789;28;20059;-77
2021/11/15 05:55:16;;;;;;;15.18;8.52;;;;;;;;;;5076402;28;20052;-78
2021/11/15 05:57:42;;;;;;;15.52;8.73;;;;;;;;;;5076299;28;20064;-77
2021/11/15 06:00:11;;;;;;;15.75;8.98;;;;;;;;;;5056581;28;20075;-78
2021/11/15 06:02:37;;;;;;;13.95;8.25;;;;;;;;;;5057476;28;20147;-78
2021/11/15 06:05:04;;;;;;;12.32;8.40;;;;;;;;;;5066099;28;20036;-77
2021/11/15 06:07:29;;;;;;;13.90;8.15;;;;;;;;;;5046367;28;20083;-77
2021/11/15 06:09:56;;;;;;;13.23;8.07;;;;;;;;;;5096052;28;20028;-78
2021/11/15 06:12:22;;;;;;;16.05;9.10;;;;;;;;;;5097390;28;20097;-78
2021/11/15 06:14:48;;;;;;;14.70;8.73;;;;;;;;;;5090963;28;20063;-77
2021/11/15 06:17:15;;;;;;;13.95;8.05;;;;;;;;;;5078882;28;20061;-78
2021/11/15 06:19:41;;;;;;;14.55;8.20;;;;;;;;;;5080750;28;20067;-79
2021/11/15 06:22:07;;;;;;;13.70;9.07;;;;;;;;;;5079782;28;20035;-80
2021/11/15 06:24:34;;;;;;;13.88;8.48;;;;;;;;;;5086060;28;20032;-78
2021/11/15 06:27:00;;;;;;;15.20;7.95;;;;;;;;;;5075054;28;20075;-78
2021/11/15 06:29:27;;;;;;;13.43;8.43;;;;;;;;;;5074776;28;20103;-77
2021/11/15 06:31:53;;;;;;;14.25;8.65;;;;;;;;;;5074700;28;20024;-77
2021/11/15 06:34:19;;;;;;;13.25;7.97;;;;;;;;;;5056665;28;20036;-77
2021/11/15 06:36:45;;;;;;;13.70;8.48;;;;;;;;;;5074856;28;20042;-77
2021/11/15 06:39:11;;;;;;;14.10;8.48;;;;;;;;;;5080180;28;20465;-77
2021/11/15 06:41:37;;;;;;;13.93;8.35;;;;;;;;;;5074909;28;20542;-76
2021/11/15 06:44:05;;;;;;;12.93;8.50;;;;;;;;;;5074871;28;20039;-77
2021/11/15 06:46:31;;;;;;;12.23;7.90;;;;;;;;;;5056065;28;20032;-76
2021/11/15 06:48:57;;;;;;;13.43;7.95;;;;;;;;;;5068840;28;20400;-77
2021/11/15 06:51:24;;;;;;;13.60;8.00;;;;;;;;;;5094896;28;20039;-76
2021/11/15 06:53:50;;;;;;;11.93;8.07;;;;;;;;;;5077983;28;21623;-77
2021/11/15 06:56:16;;;;;;;12.93;7.97;;;;;;;;;;5094045;28;20043;-77
2021/11/15 06:58:42;;;;;;;14.13;8.57;;;;;;;;;;5093448;28;20020;-76
2021/11/15 07:01:08;;;;;;;12.23;8.27;;;;;;;;;;5069924;28;20087;-76
2021/11/15 07:03:34;;;;;;;14.02;8.02;;;;;;;;;;5085614;28;20078;-76
2021/11/15 07:06:01;;;;;;;12.50;7.75;;;;;;;;;;5107596;28;20047;-77
2021/11/15 07:08:27;;;;;;;13.43;8.82;;;;;;;;;;5113126;28;20027;-76
2021/11/15 07:10:54;;;;;;;12.63;7.55;;;;;;;;;;5116341;28;20032;-76
2021/11/15 07:13:20;;;;;;;13.00;7.88;;;;;;;;;;5116439;28;20012;-77
2021/11/15 07:15:48;;;;;;;12.63;7.88;;;;;;;;;;5115663;28;20012;-76
2021/11/15 07:18:14;;;;;;;13.00;7.65;;;;;;;;;;5112757;28;20055;-76
2021/11/15 07:20:40;;;;;;;11.43;7.22;;;;;;;;;;5093818;28;20033;-76
2021/11/15 07:23:07;;;;;;;12.88;7.82;;;;;;;;;;5089218;28;20089;-77
2021/11/15 07:25:33;;;;;;;11.48;7.28;;;;;;;;;;5073904;28;20049;-76
2021/11/15 07:27:59;;;;;;;12.80;8.07;;;;;;;;;;5075029;28;20498;-77
2021/11/15 07:30:27;;;;;;;14.02;8.48;;;;;;;;;;5073894;28;20107;-77
2021/11/15 07:32:53;;;;;;;12.82;7.93;;;;;;;;;;5083434;28;20043;-77
2021/11/15 07:35:20;;;;;;;12.27;7.70;;;;;;;;;;5093017;28;20488;-77
2021/11/15 07:37:46;;;;;;;13.43;8.05;;;;;;;;;;5088403;28;20020;-76
2021/11/15 07:40:13;;;;;;;11.63;7.88;;;;;;;;;;5078802;28;20020;-76
2021/11/15 07:42:39;;;;;;;11.77;7.25;;;;;;;;;;5073437;28;20028;-77
2021/11/15 07:45:05;;;;;;;12.88;8.35;;;;;;;;;;5073026;28;20086;-76
2021/11/15 07:47:33;;;;;;;13.35;7.95;;;;;;;;;;5074597;28;20037;-77
2021/11/15 07:49:59;;;;;;;19.33;8.25;;;;;;;;;;5089022;28;20424;-76
2021/11/15 07:52:25;;;;;;;12.05;7.70;;;;;;;;;;5082793;28;20040;-76
2021/11/15 07:54:52;;;;;;;12.30;7.88;;;;;;;;;;5070467;28;20032;-76
2021/11/15 07:57:18;;;;;;;12.27;7.70;;;;;;;;;;5081063;28;20036;-76
2021/11/15 07:59:44;;;;;;;12.80;8.25;;;;;;;;;;5075144;28;20032;-76
2021/11/15 08:02:12;;;;;;;13.48;7.88;;;;;;;;;;5088473;28;20028;-77
2021/11/15 08:04:38;;;;;;;12.98;7.43;;;;;;;;;;5092581;28;20177;-77
2021/11/15 08:07:04;;;;;;;16.23;7.18;;;;;;;;;;5092465;28;20112;-77
2021/11/15 08:09:30;;;;;;;13.40;8.05;;;;;;;;;;5063871;28;20097;-76
2021/11/15 08:12:00;;;;;;;12.57;7.70;;;;;;;;;;5092485;28;20036;-77
2021/11/15 08:14:26;;;;;;;15.13;8.93;;;;;;;;;;5092020;28;20028;-77
2021/11/15 08:16:53;;;;;;;13.18;7.80;;;;;;;;;;5072803;28;20035;-77
2021/11/15 08:19:19;;;;;;;13.25;7.68;;;;;;;;;;5094212;28;20028;-77
2021/11/15 08:21:47;;;;;;;11.95;7.43;;;;;;;;;;5093886;28;20023;-77
2021/11/15 08:24:25;;;;;;;12.02;7.75;;;;;;;;;;5074017;28;20066;-77
2021/11/15 08:26:57;;;;;;;12.57;7.70;;;;;;;;;;5084389;28;20021;-77
2021/11/15 08:29:23;;;;;;;14.15;7.90;;;;;;;;;;5072356;28;20033;-77
2021/11/15 08:31:50;;;;;;;12.18;7.40;;;;;;;;;;5072472;28;20032;-78
2021/11/15 08:34:17;;;;;;;11.90;8.13;;;;;;;;;;5072527;28;20028;-78
2021/11/15 08:36:43;;;;;;;12.43;7.43;;;;;;;;;;5071945;28;20525;-77
2021/11/15 08:39:14;;;;;;;10.50;7.55;;;;;;;;;;5072704;28;20032;-77
2021/11/15 08:41:41;;;;;;;10.57;7.28;;;;;;;;;;5072004;28;20038;-76
2021/11/15 08:44:10;;;;;;;12.50;7.93;;;;;;;;;;5072209;28;20490;-77
2021/11/15 08:46:36;;;;;;;12.43;6.60;;;;;;;;;;5090116;28;20027;-77
2021/11/15 08:49:07;;;;;;;11.10;6.95;;;;;;;;;;5086384;28;20393;-78
2021/11/15 08:51:35;;;;;;;9.45;6.80;;;;;;;;;;5071871;28;20031;-75
2021/11/15 08:54:01;;;;;;;11.90;7.45;;;;;;;;;;5072518;28;20021;-77
2021/11/15 08:56:28;;;;;;;12.98;7.45;;;;;;;;;;5067452;28;20024;-76
2021/11/15 08:58:54;;;;;;;12.02;7.00;;;;;;;;;;5079986;28;20493;-76
2021/11/15 09:01:20;;;;;;;12.10;7.13;;;;;;;;;;5082154;28;20100;-76
2021/11/15 09:03:50;;;;;;;12.57;7.38;;;;;;;;;;5079189;28;20482;-80
2021/11/15 09:06:17;;;;;;;9.00;6.45;;;;;;;;;;5077086;28;20428;-76
2021/11/15 09:08:43;;;;;;;17.00;8.35;;;;;;;;;;5082442;28;20093;-77
2021/11/15 09:11:09;;;;;;;14.63;7.32;;;;;;;;;;5086414;28;20060;-77
2021/11/15 09:13:36;;;;;;;10.98;6.65;;;;;;;;;;5071954;28;20043;-77
2021/11/15 09:16:02;;;;;;;10.30;6.32;;;;;;;;;;5071129;28;20025;-77
2021/11/15 09:18:28;;;;;;;11.43;6.55;;;;;;;;;;5058625;28;20028;-77
2021/11/15 09:20:54;;;;;;;12.85;6.85;;;;;;;;;;5080184;28;20028;-77
2021/11/15 09:23:21;;;;;;;12.18;6.15;;;;;;;;;;5087102;28;20035;-78
2021/11/15 09:25:47;;;;;;;12.07;6.28;;;;;;;;;;5090522;28;20069;-78
2021/11/15 09:28:13;;;;;;;9.20;6.10;;;;;;;;;;5085459;28;20028;-78
2021/11/15 09:30:40;;;;;;;9.60;5.50;;;;;;;;;;5068981;28;20036;-77
2021/11/15 09:33:06;;;;;;;9.63;5.97;;;;;;;;;;5080769;28;20033;-79
2021/11/15 09:35:33;;;;;;;9.15;5.75;;;;;;;;;;5070971;28;20025;-78
2021/11/15 09:38:00;;;;;;;9.95;6.03;;;;;;;;;;5086774;28;20021;-79
2021/11/15 09:40:26;;;;;;;9.85;5.75;;;;;;;;;;5063439;28;20055;-78
2021/11/15 09:42:55;;;;;;;10.85;5.43;;;;;;;;;;5091361;28;20026;-78
2021/11/15 09:45:22;;;;;;;9.18;5.30;;;;;;;;;;5069066;28;20024;-78
2021/11/15 09:47:48;;;;;;;11.90;5.82;;;;;;;;;;5087577;28;20493;-78
2021/11/15 09:50:17;;;;;;;7.90;5.45;;;;;;;;;;5073797;28;20619;-78
2021/11/15 09:52:44;;;;;;;11.50;5.75;;;;;;;;;;5086493;28;20389;-78
2021/11/15 09:55:10;;;;;;;9.88;5.63;;;;;;;;;;5071073;28;20362;-78
2021/11/15 09:57:38;;;;;;;8.85;5.32;;;;;;;;;;5077219;28;20465;-78
2021/11/15 10:00:06;;;;;;;9.05;5.82;;;;;;;;;;5071812;28;20024;-78
2021/11/15 10:02:32;;;;;;;10.15;5.63;;;;;;;;;;5071233;28;20025;-77
2021/11/15 10:04:58;;;;;;;9.68;5.57;;;;;;;;;;5071734;28;20078;-78
2021/11/15 10:07:41;;;;;;;8.73;5.72;;;;;;;;;;5072145;28;20059;-78
2021/11/15 10:10:26;;;;;;;12.40;5.88;;;;;;;;;;5091555;28;20039;-78
2021/11/15 10:13:09;;;;;;;8.85;5.80;;;;;;;;;;5088582;28;20028;-78
2021/11/15 10:16:04;;;;;;;10.02;5.78;;;;;;;;;;5074683;28;20023;-78
2021/11/15 10:18:33;;;;;;;12.20;5.50;;;;;;;;;;5076100;28;20032;-78
2021/11/15 10:21:00;;;;;;;9.70;5.30;;;;;;;;;;5060408;28;20024;-78
2021/11/15 10:23:27;;;;;;;8.77;5.53;;;;;;;;;;5071610;28;20064;-78
2021/11/15 10:25:58;;;;;;;9.90;5.63;;;;;;;;;;5070605;28;20524;-78
2021/11/15 10:28:24;;;;;;;10.68;6.13;;;;;;;;;;5071351;28;20484;-78
2021/11/15 10:30:50;;;;;;;8.30;5.30;;;;;;;;;;5073286;28;20488;-78
2021/11/15 10:33:17;;;;;;;9.98;5.40;;;;;;;;;;5075292;28;20069;-78
2021/11/15 10:35:46;;;;;;;9.52;5.68;;;;;;;;;;5074508;28;20102;-78
2021/11/15 10:38:13;;;;;;;10.95;6.18;;;;;;;;;;5075270;28;20103;-78
2021/11/15 10:40:39;;;;;;;9.43;6.10;;;;;;;;;;5074645;28;20056;-78
2021/11/15 10:43:09;;;;;;;11.07;6.47;;;;;;;;;;5074766;28;20109;-78
2021/11/15 10:45:38;;;;;;;12.13;5.85;;;;;;;;;;5074264;28;20028;-78
2021/11/15 10:48:08;;;;;;;8.90;5.47;;;;;;;;;;5075875;28;20105;-78
2021/11/15 10:50:52;;;;;;;9.98;6.28;;;;;;;;;;5074575;28;20017;-78
2021/11/15 10:56:07;;;;;;;8.73;5.60;;;;;;;;;;5073918;28;20443;-78
2021/11/15 10:58:44;;;;;;;11.63;6.47;;;;;;;;;;5077978;28;20428;-78
2021/11/15 11:01:10;;;;;;;8.80;5.43;;;;;;;;;;5070154;28;20028;-78
2021/11/15 11:03:37;;;;;;;9.50;6.10;;;;;;;;;;5074099;28;20078;-78
2021/11/15 11:06:05;;;;;;;10.63;5.80;;;;;;;;;;5089691;28;20109;-78
2021/11/15 11:08:39;;;;;;;10.75;5.88;;;;;;;;;;5075462;28;20024;-78
2021/11/15 11:11:11;;;;;;;10.98;5.85;;;;;;;;;;5075065;28;20025;-78
2021/11/15 11:13:47;;;;;;;10.43;5.55;;;;;;;;;;5075010;28;20621;-78
2021/11/15 11:16:13;;;;;;;9.95;5.95;;;;;;;;;;5080523;28;20111;-78
2021/11/15 11:18:44;;;;;;;11.25;6.07;;;;;;;;;;5093544;28;20020;-78
2021/11/15 11:26:33;;;;;;;10.15;6.13;;;;;;;;;;5053489;28;20033;-78
2021/11/15 11:29:01;;;;;;;16.10;6.95;;;;;;;;;;5072119;28;20028;-79
2021/11/15 11:31:27;;;;;;;10.18;6.32;;;;;;;;;;5085033;28;20032;-80
2021/11/15 11:33:53;;;;;;;11.52;6.43;;;;;;;;;;5084677;28;20064;-79
2021/11/15 11:36:19;;;;;;;12.13;6.80;;;;;;;;;;5099809;28;20039;-78
2021/11/15 11:38:46;;;;;;;10.77;6.75;;;;;;;;;;5078167;28;20479;-78
2021/11/15 11:41:13;;;;;;;11.15;5.68;;;;;;;;;;5038630;28;20025;-79
2021/11/15 11:43:39;;;;;;;12.48;6.63;;;;;;;;;;5060615;28;20158;-79
2021/11/15 11:46:05;;;;;;;11.70;6.70;;;;;;;;;;5075911;28;20497;-78
2021/11/15 11:48:32;;;;;;;10.43;6.20;;;;;;;;;;5075719;28;20036;-78
2021/11/15 11:50:58;;;;;;;12.60;6.93;;;;;;;;;;5091907;28;20051;-78
2021/11/15 11:53:28;;;;;;;10.70;6.38;;;;;;;;;;5076228;28;20036;-78
2021/11/15 11:55:54;;;;;;;12.77;5.90;;;;;;;;;;5075898;28;20021;-78
2021/11/15 11:58:33;;;;;;;10.90;6.45;;;;;;;;;;5078076;28;20021;-79
2021/11/15 12:01:01;;;;;;;14.02;7.60;;;;;;;;;;5085606;28;20106;-79
2021/11/15 12:03:28;;;;;;;15.77;7.55;;;;;;;;;;5084753;28;20032;-78
2021/11/15 12:05:54;;;;;;;12.55;7.72;;;;;;;;;;5079138;28;20036;-79
2021/11/15 12:08:40;;;;;;;13.77;8.05;;;;;;;;;;5068418;28;20025;-78
2021/11/15 12:11:21;;;;;;;13.25;7.32;;;;;;;;;;5074893;28;20021;-79
2021/11/15 12:13:47;;;;;;;9.63;6.38;;;;;;;;;;5055052;28;20036;-78
2021/11/15 12:16:15;;;;;;;10.63;6.40;;;;;;;;;;5058368;28;20025;-78
2021/11/15 12:18:53;;;;;;;12.02;6.95;;;;;;;;;;5074442;28;20052;-78
2021/11/15 12:21:21;;;;;;;12.27;7.72;;;;;;;;;;5091264;28;20055;-78
2021/11/15 12:23:53;;;;;;;12.52;7.10;;;;;;;;;;5064565;28;20373;-79
2021/11/15 12:26:26;;;;;;;15.15;8.23;;;;;;;;;;5083908;28;20032;-78
2021/11/15 12:28:54;;;;;;;13.48;8.10;;;;;;;;;;5096543;28;20461;-78
2021/11/15 12:31:39;;;;;;;14.00;8.10;;;;;;;;;;5096629;28;20028;-78
2021/11/15 12:34:05;;;;;;;13.25;8.10;;;;;;;;;;5094799;28;20107;-78
2021/11/15 12:36:40;;;;;;;13.68;7.43;;;;;;;;;;5087270;28;20023;-80
2021/11/15 12:39:35;;;;;;;12.98;6.95;;;;;;;;;;5092138;28;20024;-78
2021/11/15 12:42:01;;;;;;;14.82;7.47;;;;;;;;;;5076116;28;20043;-78
2021/11/15 12:44:29;;;;;;;12.10;7.18;;;;;;;;;;5098833;28;20047;-78
2021/11/15 12:47:03;;;;;;;10.13;7.47;;;;;;;;;;5095220;28;20039;-78
2021/11/15 12:49:37;;;;;;;10.73;6.80;;;;;;;;;;5082432;28;20059;-78
2021/11/15 12:52:04;;;;;;;13.40;7.18;;;;;;;;;;5094087;28;20063;-78
2021/11/15 12:54:30;;;;;;;12.75;7.53;;;;;;;;;;5093216;28;20083;-78
2021/11/15 12:56:59;;;;;;;12.02;6.90;;;;;;;;;;5075806;28;20027;-78
2021/11/15 12:59:26;;;;;;;15.85;8.35;;;;;;;;;;5079738;28;20016;-78
2021/11/15 13:01:52;;;;;;;15.18;7.60;;;;;;;;;;5069298;28;20480;-78
2021/11/15 13:04:18;;;;;;;12.75;7.38;;;;;;;;;;5093844;28;20032;-79
2021/11/15 13:06:44;;;;;;;13.00;7.00;;;;;;;;;;5095855;28;20024;-78
2021/11/15 13:09:11;;;;;;;12.18;7.00;;;;;;;;;;5086890;28;20032;-79
2021/11/15 13:11:40;;;;;;;12.40;6.65;;;;;;;;;;5081902;28;20028;-78
2021/11/15 13:14:05;;;;;;;12.88;7.28;;;;;;;;;;5096548;28;20023;-80
2021/11/15 13:16:32;;;;;;;11.60;6.75;;;;;;;;;;5094444;28;20080;-79
2021/11/15 13:18:58;;;;;;;12.48;7.10;;;;;;;;;;5076453;28;20028;-79
2021/11/15 13:21:24;;;;;;;12.70;7.60;;;;;;;;;;5094805;28;20112;-79
2021/11/15 13:23:53;;;;;;;12.30;7.35;;;;;;;;;;5081304;28;20029;-78
2021/11/15 13:26:19;;;;;;;13.35;7.35;;;;;;;;;;5073748;28;20129;-79
2021/11/15 13:28:45;;;;;;;15.40;7.93;;;;;;;;;;5076209;28;20033;-79
2021/11/15 13:31:11;;;;;;;14.55;7.10;;;;;;;;;;5075793;28;20603;-78
2021/11/15 13:33:38;;;;;;;13.88;7.85;;;;;;;;;;5078558;28;20035;-78
2021/11/15 13:36:04;;;;;;;14.23;7.57;;;;;;;;;;5078853;28;20020;-78
2021/11/15 13:38:30;;;;;;;12.95;7.22;;;;;;;;;;5077489;28;20023;-79
2021/11/15 13:40:56;;;;;;;15.25;8.70;;;;;;;;;;5077653;28;20511;-78
2021/11/15 13:43:27;;;;;;;13.40;8.15;;;;;;;;;;5073426;28;20025;-78
2021/11/15 13:45:55;;;;;;;15.50;8.15;;;;;;;;;;5093371;28;20092;-78
2021/11/15 13:48:22;;;;;;;12.88;7.95;;;;;;;;;;5093500;28;20051;-79
2021/11/15 13:50:49;;;;;;;15.80;7.97;;;;;;;;;;5093170;28;20025;-78
2021/11/15 13:53:15;;;;;;;14.15;7.93;;;;;;;;;;5083403;28;20036;-78
2021/11/15 13:55:43;;;;;;;14.88;8.10;;;;;;;;;;5072551;28;20024;-78
2021/11/15 13:58:09;;;;;;;12.60;8.40;;;;;;;;;;5082447;28;20095;-77
2021/11/15 14:00:36;;;;;;;16.13;8.18;;;;;;;;;;5085976;28;20404;-78
2021/11/15 14:03:02;;;;;;;14.55;7.90;;;;;;;;;;5087869;28;20106;-78
2021/11/15 14:05:28;;;;;;;12.27;7.40;;;;;;;;;;5086166;28;20027;-78
2021/11/15 14:07:54;;;;;;;12.85;8.25;;;;;;;;;;5086028;28;20038;-78
2021/11/15 14:10:20;;;;;;;13.95;7.85;;;;;;;;;;5075027;28;20020;-78
2021/11/15 14:12:46;;;;;;;14.40;8.52;;;;;;;;;;5075580;28;20028;-78
2021/11/15 14:15:12;;;;;;;15.85;8.50;;;;;;;;;;5075655;28;20108;-79
2021/11/15 14:17:39;;;;;;;14.48;8.15;;;;;;;;;;5083561;28;20345;-78
2021/11/15 14:20:06;;;;;;;15.52;8.40;;;;;;;;;;5079752;28;20028;-78
2021/11/15 14:22:32;;;;;;;14.32;7.45;;;;;;;;;;5086760;28;20032;-77
2021/11/15 14:24:58;;;;;;;15.20;8.35;;;;;;;;;;5075314;28;20194;-78
2021/11/15 14:27:24;;;;;;;13.50;7.90;;;;;;;;;;5058091;28;20059;-78
2021/11/15 14:29:50;;;;;;;16.13;8.38;;;;;;;;;;5079329;28;20025;-78
2021/11/15 14:32:17;;;;;;;15.48;9.07;;;;;;;;;;5093100;28;20116;-78
2021/11/15 14:34:45;;;;;;;15.55;8.20;;;;;;;;;;5088684;28;20438;-78
2021/11/15 14:37:12;;;;;;;14.77;8.55;;;;;;;;;;5076960;28;20523;-78
2021/11/15 14:39:38;;;;;;;15.30;8.60;;;;;;;;;;5080439;28;20076;-78